Puyallup, WA

11:12 AM PST on December 18, 2017 (GMT -0800)
Pierce County - Thun Field

Weather History for KPLU - February, 2012

Change the Weather History Date:

Sunday, February 5, 2012

  Actual Average (KTCM) Record (KTCM)
Temperature  
Mean Temperature 44 °F -  
Max Temperature 57 °F 46 °F 60 °F (1978)
Min Temperature 30 °F 30 °F 12 °F (1989)
Degree Days  
Heating Degree Days 22    
Moisture  
Dew Point 32 °F    
Average Humidity 76    
Maximum Humidity 100    
Minimum Humidity 38    
Precipitation  
Precipitation 0.00 in - - ()
Sea Level Pressure  
Sea Level Pressure 30.19 in    
Wind  
Wind Speed 1 mph (North)    
Max Wind Speed 7 mph    
Max Gust Speed -    
Visibility 10 miles    
Events      
Averages and records for this station are not official NWS values.
T = Trace of Precipitation, MM = Missing Value Source: NWS Daily Summary

Daily Weather History Graph

Daily Weather History Graph

Search for Another Location

Airport or City:

Trip Planner

Search our weather history database for the weather conditions in past years. The results will help you decide how hot, cold, wet, or windy it might be!

Date:

Astronomy

Feb. 05, 2012 Rise Set
Actual Time 7:29 AM PST 5:17 PM PST
Civil Twilight 6:57 AM PST 5:49 PM PST
Nautical Twilight 6:20 AM PST 6:26 PM PST
Astronomical Twilight 5:45 AM PST 7:01 PM PST
Moon 3:17 PM PST (2/5) 5:49 AM PST (2/5)
Length of Visible Light 10h 52m
Length of Day
9h 47m
Waxing Gibbous, 95% of the Moon is Illuminated
Feb 5
Waxing Gibbous
Feb 7
Full
Feb 14
Last Quarter
Feb 21
New
Feb 29
First Quarter

Hourly Weather History & Observations

Time (PST) Temp. Windchill Dew Point Humidity Pressure Visibility Wind Dir Wind Speed Gust Speed Precip Events Conditions
12:15 AM 32.0 °F - 30.2 °F 93% 30.18 in 10.0 mi Calm Calm - N/A   Clear
12:35 AM 32.0 °F - 32.0 °F 100% 30.18 in 10.0 mi Calm Calm - N/A   Clear
12:55 AM 32.0 °F - 30.2 °F 93% 30.18 in 10.0 mi Calm Calm - N/A   Clear
1:15 AM 32.0 °F - 32.0 °F 100% 30.19 in 10.0 mi Calm Calm - N/A   Clear
1:35 AM 32.0 °F - 32.0 °F 100% 30.19 in 10.0 mi Calm Calm - N/A   Clear
1:55 AM 32.0 °F - 30.2 °F 93% 30.19 in 10.0 mi Calm Calm - N/A   Clear
2:15 AM 32.0 °F - 30.2 °F 93% 30.20 in 10.0 mi Calm Calm - N/A   Clear
2:35 AM 30.2 °F - 30.2 °F 100% 30.20 in 10.0 mi Calm Calm - N/A   Clear
2:55 AM 30.2 °F - 30.2 °F 100% 30.21 in 10.0 mi Calm Calm - N/A   Clear
3:15 AM 30.2 °F - 30.2 °F 100% 30.21 in 10.0 mi Calm Calm - N/A   Clear
3:55 AM 30.2 °F - 30.2 °F 100% 30.21 in 10.0 mi Calm Calm - N/A   Clear
4:15 AM 30.2 °F - 30.2 °F 100% 30.21 in 10.0 mi Calm Calm - N/A   Clear
4:35 AM 30.2 °F - 30.2 °F 100% 30.20 in 10.0 mi Calm Calm - N/A   Clear
4:55 AM 30.2 °F - 30.2 °F 100% 30.20 in 10.0 mi Calm Calm - N/A   Clear
5:15 AM 30.2 °F - 30.2 °F 100% 30.20 in 10.0 mi Calm Calm - N/A   Clear
5:35 AM 30.2 °F - 30.2 °F 100% 30.19 in 10.0 mi Calm Calm - N/A   Clear
5:55 AM 32.0 °F - 30.2 °F 93% 30.19 in 10.0 mi Calm Calm - N/A   Clear
6:15 AM 30.2 °F - 30.2 °F 100% 30.20 in 10.0 mi Calm Calm - N/A   Clear
6:35 AM 30.2 °F - 30.2 °F 100% 30.20 in 10.0 mi Calm Calm - N/A   Clear
6:55 AM 30.2 °F - 30.2 °F 100% 30.20 in 10.0 mi Calm Calm - N/A   Clear
7:15 AM 30.2 °F - 30.2 °F 100% 30.21 in 10.0 mi Calm Calm - N/A   Clear
7:35 AM 30.2 °F - 30.2 °F 100% 30.21 in 10.0 mi Calm Calm - N/A   Clear
7:55 AM 30.2 °F - 30.2 °F 100% 30.22 in 10.0 mi Calm Calm - N/A   Clear
8:15 AM 32.0 °F - 30.2 °F 93% 30.22 in 10.0 mi Calm Calm - N/A   Clear
8:35 AM 32.0 °F - 32.0 °F 100% 30.23 in 10.0 mi Calm Calm - N/A   Clear
8:55 AM 35.6 °F - 32.0 °F 87% 30.23 in 10.0 mi Calm Calm - N/A   Clear
9:15 AM 39.2 °F - 35.6 °F 87% 30.24 in 10.0 mi Calm Calm - N/A   Clear
9:35 AM 42.8 °F - 33.8 °F 70% 30.24 in 10.0 mi Calm Calm - N/A   Clear
9:55 AM 46.4 °F - 33.8 °F 62% 30.24 in 10.0 mi Calm Calm - N/A   Clear
10:15 AM 48.2 °F - 32.0 °F 54% 30.24 in 10.0 mi Calm Calm - N/A   Clear
10:35 AM 48.2 °F - 32.0 °F 54% 30.23 in 10.0 mi Calm Calm - N/A   Clear
10:55 AM 48.2 °F - 32.0 °F 54% 30.23 in 10.0 mi Calm Calm - N/A   Clear
11:15 AM 50.0 °F - 32.0 °F 50% 30.22 in 10.0 mi Calm Calm - N/A   Clear
11:35 AM 51.8 °F - 32.0 °F 47% 30.22 in 10.0 mi Calm Calm - N/A   Clear
11:55 AM 53.6 °F - 32.0 °F 44% 30.21 in 10.0 mi Calm Calm - N/A   Clear
12:15 PM 53.6 °F - 30.2 °F 41% 30.21 in 10.0 mi Calm Calm - N/A   Clear
12:35 PM 55.4 °F - 32.0 °F 41% 30.20 in 10.0 mi Calm Calm - N/A   Clear
12:55 PM 55.4 °F - 32.0 °F 41% 30.20 in 10.0 mi Calm Calm - N/A   Clear
1:15 PM 57.2 °F - 33.8 °F 41% 30.19 in 10.0 mi NNW 5.8 mph - N/A   Clear
1:35 PM 55.4 °F - 33.8 °F 44% 30.19 in 10.0 mi NNW 3.5 mph - N/A   Clear
1:55 PM 55.4 °F - 33.8 °F 44% 30.18 in 10.0 mi NNW 4.6 mph - N/A   Clear
2:15 PM 57.2 °F - 32.0 °F 38% 30.18 in 10.0 mi North 4.6 mph - N/A   Clear
2:35 PM 57.2 °F - 32.0 °F 38% 30.18 in 10.0 mi NNW 4.6 mph - N/A   Clear
2:55 PM 57.2 °F - 32.0 °F 38% 30.17 in 10.0 mi North 3.5 mph - N/A   Clear
3:15 PM 57.2 °F - 35.6 °F 44% 30.16 in 10.0 mi North 5.8 mph - N/A   Clear
3:55 PM 55.4 °F - 35.6 °F 47% 30.15 in 10.0 mi North 3.5 mph - N/A   Clear
4:15 PM 55.4 °F - 35.6 °F 47% 30.15 in 10.0 mi North 5.8 mph - N/A   Clear
4:35 PM 53.6 °F - 35.6 °F 51% 30.15 in 10.0 mi North 3.5 mph - N/A   Clear
4:55 PM 51.8 °F - 35.6 °F 54% 30.15 in 10.0 mi North 3.5 mph - N/A   Clear
5:15 PM 50.0 °F - 33.8 °F 54% 30.15 in 10.0 mi North 3.5 mph - N/A   Clear
5:35 PM 48.2 °F - 33.8 °F 58% 30.15 in 10.0 mi North 3.5 mph - N/A   Clear
5:55 PM 46.4 °F 45.2 °F 33.8 °F 62% 30.15 in 10.0 mi North 3.5 mph - N/A   Clear
6:15 PM 44.6 °F - 33.8 °F 66% 30.15 in 10.0 mi Calm Calm - N/A   Clear
6:35 PM 42.8 °F - 33.8 °F 70% 30.14 in 10.0 mi Calm Calm - N/A   Clear
6:55 PM 41.0 °F - 33.8 °F 76% 30.14 in 10.0 mi Calm Calm - N/A   Clear
7:15 PM 39.2 °F - 33.8 °F 81% 30.14 in 10.0 mi Calm Calm - N/A   Clear
7:35 PM 39.2 °F - 35.6 °F 87% 30.14 in 10.0 mi Calm Calm - N/A   Clear
7:55 PM 37.4 °F - 33.8 °F 87% 30.14 in 10.0 mi Calm Calm - N/A   Clear
8:15 PM 37.4 °F - 33.8 °F 87% 30.14 in 10.0 mi Calm Calm - N/A   Clear
8:35 PM 35.6 °F - 33.8 °F 93% 30.13 in 10.0 mi Calm Calm - N/A   Clear
8:55 PM 35.6 °F - 33.8 °F 93% 30.13 in 10.0 mi Calm Calm - N/A   Clear
9:15 PM 33.8 °F - 33.8 °F 100% 30.13 in 10.0 mi Calm Calm - N/A   Clear
9:35 PM 33.8 °F - 33.8 °F 100% 30.13 in 10.0 mi Calm Calm - N/A   Clear
9:55 PM 33.8 °F - 33.8 °F 100% 30.13 in 10.0 mi Calm Calm - N/A   Clear
10:15 PM 33.8 °F - 33.8 °F 100% 30.12 in 10.0 mi Calm Calm - N/A   Clear
10:35 PM 33.8 °F - 33.8 °F 100% 30.12 in 10.0 mi Calm Calm - N/A   Clear
10:55 PM 32.0 °F - 32.0 °F 100% 30.12 in 10.0 mi Calm Calm - N/A   Clear
11:15 PM 32.0 °F - 32.0 °F 100% 30.12 in 10.0 mi Calm Calm - N/A   Clear
11:35 PM 32.0 °F - 32.0 °F 100% 30.12 in 10.0 mi Calm Calm - N/A   Clear
11:55 PM 32.0 °F - 32.0 °F 100% 30.12 in 10.0 mi Calm Calm - N/A   Clear